createdAt,value
2017-11-19T00:01:50.505Z,8.10
2017-11-19T00:04:17.253Z,8.73
2017-11-19T00:06:43.982Z,9.33
2017-11-19T00:09:10.750Z,8.40
2017-11-19T00:11:37.427Z,9.20
2017-11-19T00:14:04.159Z,9.10
2017-11-19T00:16:30.849Z,9.30
2017-11-19T00:18:57.561Z,8.07
2017-11-19T00:21:24.265Z,8.30
2017-11-19T00:23:50.980Z,8.70
2017-11-19T00:26:17.665Z,8.13
2017-11-19T00:28:44.335Z,8.63
2017-11-19T00:31:11.033Z,8.50
2017-11-19T00:33:37.769Z,8.20
2017-11-19T00:36:04.499Z,8.83
2017-11-19T00:38:31.251Z,7.43
2017-11-19T00:40:57.941Z,7.33
2017-11-19T00:43:28.605Z,8.07
2017-11-19T00:45:55.293Z,7.10
2017-11-19T00:48:21.966Z,8.23
2017-11-19T00:50:48.640Z,7.77
2017-11-19T00:53:15.322Z,7.90
2017-11-19T00:55:42.031Z,8.37
2017-11-19T00:58:08.737Z,7.80
2017-11-19T01:00:35.433Z,8.43
2017-11-19T01:03:02.298Z,9.13
2017-11-19T01:05:28.988Z,8.27
2017-11-19T01:07:55.748Z,8.17
2017-11-19T01:10:22.439Z,8.43
2017-11-19T01:12:49.349Z,8.50
2017-11-19T01:15:16.140Z,9.20
2017-11-19T01:17:42.922Z,8.53
2017-11-19T01:20:09.731Z,8.43
2017-11-19T01:22:36.415Z,8.40
2017-11-19T01:25:03.102Z,8.23
2017-11-19T01:27:29.924Z,7.80
2017-11-19T01:29:56.645Z,8.10
2017-11-19T01:32:23.497Z,7.83
2017-11-19T01:34:50.211Z,9.30
2017-11-19T01:37:16.973Z,9.30
2017-11-19T01:39:43.656Z,9.03
2017-11-19T01:42:10.527Z,9.33
2017-11-19T01:44:37.195Z,8.60
2017-11-19T01:47:03.874Z,8.90
2017-11-19T01:49:30.565Z,8.90
2017-11-19T01:51:57.243Z,7.93
2017-11-19T01:54:23.972Z,8.93
2017-11-19T01:56:50.684Z,9.83
2017-11-19T01:59:17.386Z,8.60
2017-11-19T02:01:44.068Z,9.43
2017-11-19T02:06:44.011Z,8.90
2017-11-19T02:09:10.701Z,8.60
2017-11-19T02:11:37.417Z,8.80
2017-11-19T02:14:04.094Z,7.60
2017-11-19T02:16:30.775Z,8.30
2017-11-19T02:18:57.475Z,8.17
2017-11-19T02:21:24.147Z,8.50
2017-11-19T02:23:50.840Z,7.30
2017-11-19T02:26:17.574Z,8.40
2017-11-19T02:28:44.409Z,8.50
2017-11-19T02:31:11.238Z,7.83
2017-11-19T02:33:37.897Z,7.80
2017-11-19T02:36:04.576Z,7.60
2017-11-19T02:38:31.242Z,6.40
2017-11-19T02:40:58.062Z,6.90
2017-11-19T02:43:24.722Z,6.87
2017-11-19T02:45:52.071Z,6.60
2017-11-19T02:48:18.757Z,7.37
2017-11-19T02:50:45.506Z,6.50
2017-11-19T02:53:12.364Z,7.03
2017-11-19T02:55:39.024Z,6.03
2017-11-19T02:58:05.687Z,7.83
2017-11-19T03:00:32.380Z,6.20
2017-11-19T03:02:59.065Z,7.23
2017-11-19T03:05:25.749Z,6.27
2017-11-19T03:07:52.421Z,6.17
2017-11-19T03:10:19.104Z,6.87
2017-11-19T03:12:45.760Z,6.27
2017-11-19T03:15:12.464Z,7.23
2017-11-19T03:17:39.776Z,5.73
2017-11-19T03:20:06.446Z,6.60
2017-11-19T03:22:33.133Z,7.00
2017-11-19T03:24:59.805Z,6.57
2017-11-19T03:27:26.496Z,6.80
2017-11-19T03:29:53.165Z,7.17
2017-11-19T03:32:19.895Z,6.40
2017-11-19T03:34:46.564Z,6.20
2017-11-19T03:37:13.237Z,6.00
2017-11-19T03:39:40.018Z,5.67
2017-11-19T03:42:06.684Z,5.23
2017-11-19T03:44:33.380Z,6.37
2017-11-19T03:47:00.042Z,5.63
2017-11-19T03:49:26.694Z,5.13
2017-11-19T03:51:53.544Z,5.93
2017-11-19T03:54:20.298Z,5.70
2017-11-19T03:56:46.985Z,5.77
2017-11-19T03:59:13.633Z,5.63
2017-11-19T04:01:41.229Z,6.13
2017-11-19T04:04:07.918Z,6.03
2017-11-19T04:06:34.597Z,5.67
2017-11-19T04:09:01.286Z,5.70
2017-11-19T04:11:28.003Z,6.60
2017-11-19T04:13:54.719Z,6.10
2017-11-19T04:16:21.396Z,6.30
2017-11-19T04:18:48.130Z,6.27
2017-11-19T04:21:14.802Z,6.63
2017-11-19T04:23:41.551Z,6.60
2017-11-19T04:26:08.348Z,5.80
2017-11-19T04:28:35.018Z,6.70
2017-11-19T04:31:02.335Z,5.70
2017-11-19T04:33:29.022Z,5.87
2017-11-19T04:35:55.680Z,6.10
2017-11-19T04:38:22.331Z,6.53
2017-11-19T04:40:49.077Z,6.33
2017-11-19T04:43:15.750Z,6.20
2017-11-19T04:45:42.447Z,6.40
2017-11-19T04:48:09.118Z,7.00
2017-11-19T04:50:35.809Z,6.57
2017-11-19T04:53:02.500Z,6.83
2017-11-19T04:55:29.206Z,5.90
2017-11-19T04:57:55.877Z,7.23
2017-11-19T05:00:22.541Z,6.90
2017-11-19T05:02:49.232Z,7.00
2017-11-19T05:05:16.102Z,7.60
2017-11-19T05:07:42.815Z,6.93
2017-11-19T05:10:09.725Z,7.20
2017-11-19T05:12:36.380Z,7.07
2017-11-19T05:15:03.070Z,6.30
2017-11-19T05:17:29.749Z,6.80
2017-11-19T05:19:56.425Z,7.07
2017-11-19T05:22:23.164Z,6.20
2017-11-19T05:24:49.808Z,5.83
2017-11-19T05:27:16.460Z,5.40
2017-11-19T05:29:43.140Z,6.00
2017-11-19T05:32:09.817Z,5.97
2017-11-19T05:34:36.543Z,6.10
2017-11-19T05:37:03.201Z,6.10
2017-11-19T05:39:30.064Z,8.10
2017-11-19T05:41:56.764Z,6.70
2017-11-19T05:44:23.450Z,6.60
2017-11-19T05:46:50.132Z,6.70
2017-11-19T05:49:16.797Z,6.90
2017-11-19T05:51:43.587Z,7.30
2017-11-19T05:54:10.257Z,7.67
2017-11-19T05:56:36.966Z,7.13
2017-11-19T05:59:03.661Z,8.00
2017-11-19T06:01:30.511Z,6.73
2017-11-19T06:03:57.208Z,7.00
2017-11-19T06:06:23.889Z,7.77
2017-11-19T06:08:50.573Z,7.03
2017-11-19T06:11:17.264Z,8.60
2017-11-19T06:13:43.980Z,7.63
2017-11-19T06:16:10.661Z,7.50
2017-11-19T06:18:37.328Z,8.00
2017-11-19T06:21:04.031Z,9.30
2017-11-19T06:23:31.061Z,8.00
2017-11-19T06:25:57.748Z,7.67
2017-11-19T06:28:24.571Z,8.10
2017-11-19T06:30:51.334Z,7.07
2017-11-19T06:33:18.054Z,7.80
2017-11-19T06:35:44.726Z,7.40
2017-11-19T06:38:11.495Z,7.47
2017-11-19T06:40:38.187Z,7.33
2017-11-19T06:43:04.849Z,8.20
2017-11-19T06:45:31.539Z,8.47
2017-11-19T06:47:58.444Z,7.87
2017-11-19T06:50:25.116Z,7.73
2017-11-19T06:52:51.802Z,6.63
2017-11-19T06:55:18.640Z,7.60
2017-11-19T06:57:45.342Z,8.00
2017-11-19T07:00:12.496Z,7.40
2017-11-19T07:02:39.175Z,8.03
2017-11-19T07:05:06.030Z,7.63
2017-11-19T07:07:32.718Z,7.90
2017-11-19T07:09:59.415Z,7.53
2017-11-19T07:12:26.095Z,7.70
2017-11-19T07:14:52.775Z,8.27
2017-11-19T07:17:19.457Z,8.40
2017-11-19T07:19:46.251Z,7.83
2017-11-19T07:22:12.930Z,7.80
2017-11-19T07:24:39.599Z,8.00
2017-11-19T07:27:06.317Z,8.00
2017-11-19T07:29:33.024Z,7.90
2017-11-19T07:32:00.180Z,7.40
2017-11-19T07:34:26.883Z,8.37
2017-11-19T07:36:53.649Z,8.33
2017-11-19T07:39:20.332Z,8.77
2017-11-19T07:41:47.029Z,7.40
2017-11-19T07:44:13.727Z,8.37
2017-11-19T07:46:40.394Z,6.33
2017-11-19T07:49:07.105Z,6.13
2017-11-19T07:51:33.786Z,4.80
2017-11-19T07:54:00.598Z,3.90
2017-11-19T07:56:27.365Z,4.40
2017-11-19T07:58:54.025Z,4.60
2017-11-19T08:01:20.717Z,4.83
2017-11-19T08:03:48.055Z,6.90
2017-11-19T08:06:14.742Z,6.77
2017-11-19T08:08:41.428Z,7.13
2017-11-19T08:11:08.121Z,7.70
2017-11-19T08:13:34.800Z,5.57
2017-11-19T08:16:01.482Z,5.90
2017-11-19T08:18:28.240Z,5.20
2017-11-19T08:20:54.968Z,5.53
2017-11-19T08:23:22.165Z,6.00
2017-11-19T08:25:48.844Z,6.30
2017-11-19T08:28:15.526Z,6.80
2017-11-19T08:30:42.199Z,5.47
2017-11-19T08:33:08.937Z,5.37
2017-11-19T08:35:35.615Z,5.80
2017-11-19T08:38:02.401Z,7.10
2017-11-19T08:40:29.099Z,6.80
2017-11-19T08:42:55.816Z,7.00
2017-11-19T08:45:22.719Z,7.73
2017-11-19T08:47:49.374Z,7.13
2017-11-19T08:50:16.311Z,7.40
2017-11-19T08:52:43.099Z,7.80
2017-11-19T08:55:09.764Z,8.37
2017-11-19T08:57:36.556Z,7.13
2017-11-19T09:00:03.218Z,8.43
2017-11-19T09:02:29.939Z,7.80
2017-11-19T09:04:56.705Z,8.37
2017-11-19T09:07:23.367Z,7.20
2017-11-19T09:09:50.691Z,7.33
2017-11-19T09:12:17.445Z,7.70
2017-11-19T09:14:46.933Z,7.43
2017-11-19T09:17:13.669Z,7.70
2017-11-19T09:19:40.502Z,6.93
2017-11-19T09:22:07.217Z,7.43
2017-11-19T09:24:34.854Z,7.93
2017-11-19T09:27:01.555Z,7.40
2017-11-19T09:29:28.260Z,7.73
2017-11-19T09:31:54.944Z,7.40
2017-11-19T09:34:21.656Z,8.30
2017-11-19T09:36:48.420Z,7.30
2017-11-19T09:39:15.090Z,6.90
2017-11-19T09:41:41.891Z,7.57
2017-11-19T09:44:08.577Z,7.87
2017-11-19T09:46:35.245Z,8.07
2017-11-19T09:49:01.943Z,7.27
2017-11-19T09:51:28.635Z,9.00
2017-11-19T09:53:55.378Z,7.67
2017-11-19T09:56:22.071Z,6.93
2017-11-19T09:58:48.742Z,7.03
2017-11-19T10:01:15.443Z,7.07
2017-11-19T10:03:43.001Z,6.53
2017-11-19T10:06:09.733Z,7.03
2017-11-19T10:08:36.484Z,6.00
2017-11-19T10:11:03.201Z,6.63
2017-11-19T10:13:30.004Z,6.27
2017-11-19T10:15:56.784Z,6.30
2017-11-19T10:18:23.463Z,6.43
2017-11-19T10:20:50.841Z,5.83
2017-11-19T10:23:17.593Z,5.27
2017-11-19T10:25:44.268Z,5.30
2017-11-19T10:28:11.009Z,5.33
2017-11-19T10:30:37.722Z,4.93
2017-11-19T10:33:04.410Z,5.37
2017-11-19T10:35:31.179Z,4.93
2017-11-19T10:37:57.938Z,4.33
2017-11-19T10:40:24.613Z,3.80
2017-11-19T10:42:51.315Z,4.40
2017-11-19T10:45:18.013Z,4.97
2017-11-19T10:47:44.793Z,4.23
2017-11-19T10:50:11.511Z,3.97
2017-11-19T10:52:38.290Z,3.97
2017-11-19T10:55:05.071Z,4.07
2017-11-19T10:57:31.824Z,3.00
2017-11-19T10:59:58.521Z,2.87
2017-11-19T11:02:25.680Z,2.43
2017-11-19T11:04:52.420Z,2.37
2017-11-19T11:07:19.096Z,2.37
2017-11-19T11:09:45.812Z,1.93
2017-11-19T11:12:12.566Z,2.67
2017-11-19T11:14:40.994Z,2.17
2017-11-19T11:17:07.721Z,2.00
2017-11-19T11:19:34.953Z,2.10
2017-11-19T11:22:01.752Z,2.27
2017-11-19T11:24:28.425Z,2.53
2017-11-19T11:26:55.105Z,2.30
2017-11-19T11:29:21.823Z,1.83
2017-11-19T11:31:48.487Z,2.50
2017-11-19T11:34:15.196Z,2.43
2017-11-19T11:36:41.925Z,2.30
2017-11-19T11:39:08.715Z,2.60
2017-11-19T11:41:35.387Z,2.10
2017-11-19T11:44:02.191Z,2.07
2017-11-19T11:46:28.895Z,1.93
2017-11-19T11:48:55.580Z,1.70
2017-11-19T11:51:22.318Z,1.80
2017-11-19T11:53:48.992Z,2.37
2017-11-19T11:56:15.665Z,1.90
2017-11-19T11:58:42.361Z,2.50
2017-11-19T12:01:09.035Z,2.13
2017-11-19T12:03:35.736Z,1.77
2017-11-19T12:06:02.417Z,2.30
2017-11-19T12:08:29.125Z,2.27
2017-11-19T12:10:55.802Z,1.90
2017-11-19T12:13:22.505Z,1.93
2017-11-19T12:15:49.204Z,2.00
2017-11-19T12:18:15.874Z,2.00
2017-11-19T12:20:42.631Z,1.93
2017-11-19T12:23:09.950Z,3.20
2017-11-19T12:25:37.281Z,2.30
2017-11-19T12:28:04.103Z,2.07
2017-11-19T12:30:31.602Z,2.07
2017-11-19T12:32:58.281Z,2.30
2017-11-19T12:35:25.072Z,2.27
2017-11-19T12:37:51.762Z,2.23
2017-11-19T12:40:18.463Z,2.13
2017-11-19T12:42:45.134Z,2.23
2017-11-19T12:45:11.830Z,2.10
2017-11-19T12:47:38.525Z,2.17
2017-11-19T12:50:05.218Z,1.93
2017-11-19T12:52:31.908Z,1.90
2017-11-19T12:54:58.640Z,2.17
2017-11-19T12:57:25.332Z,2.23
2017-11-19T12:59:51.994Z,1.67
2017-11-19T13:02:18.699Z,2.30
2017-11-19T13:04:45.467Z,1.70
2017-11-19T13:07:12.194Z,1.70
2017-11-19T13:09:39.765Z,1.90
2017-11-19T13:12:06.507Z,1.80
2017-11-19T13:14:33.211Z,1.90
2017-11-19T13:16:59.910Z,1.70
2017-11-19T13:19:26.610Z,1.40
2017-11-19T13:21:53.328Z,2.20
2017-11-19T13:24:20.024Z,1.73
2017-11-19T13:26:46.845Z,1.93
2017-11-19T13:29:13.553Z,2.40
2017-11-19T13:31:40.232Z,2.43
2017-11-19T13:34:06.950Z,2.03
2017-11-19T13:36:34.001Z,1.73
2017-11-19T13:39:03.676Z,1.90
2017-11-19T13:41:30.379Z,1.80
2017-11-19T13:43:57.130Z,1.97
2017-11-19T13:46:23.860Z,1.80
2017-11-19T13:48:50.566Z,2.60
2017-11-19T13:51:17.271Z,1.70
2017-11-19T13:53:43.918Z,2.17
2017-11-19T13:56:12.300Z,2.20
2017-11-19T13:58:38.966Z,2.77
2017-11-19T14:01:05.696Z,2.50
2017-11-19T14:03:32.389Z,2.20
2017-11-19T14:05:59.109Z,2.00
2017-11-19T14:08:25.917Z,2.23
2017-11-19T14:10:54.484Z,2.23
2017-11-19T14:13:21.268Z,2.30
2017-11-19T14:15:47.961Z,2.10
2017-11-19T14:18:14.662Z,2.23
2017-11-19T14:20:41.340Z,2.20
2017-11-19T14:23:08.006Z,2.53
2017-11-19T14:25:34.798Z,1.80
2017-11-19T14:28:01.483Z,3.03
2017-11-19T14:30:28.175Z,2.80
2017-11-19T14:32:54.865Z,1.90
2017-11-19T14:35:21.553Z,2.70
2017-11-19T14:37:53.178Z,2.53
2017-11-19T14:40:19.847Z,2.90
2017-11-19T14:42:46.566Z,2.40
2017-11-19T14:45:19.069Z,2.33
2017-11-19T14:47:45.767Z,2.33
2017-11-19T14:50:12.440Z,2.67
2017-11-19T14:52:39.160Z,2.63
2017-11-19T14:55:05.925Z,2.10
2017-11-19T14:57:32.582Z,3.03
2017-11-19T14:59:59.288Z,2.40
2017-11-19T15:02:25.959Z,3.00
2017-11-19T15:04:52.646Z,3.00
2017-11-19T15:07:19.368Z,2.53
2017-11-19T15:09:46.147Z,3.10
2017-11-19T15:12:12.861Z,2.53
2017-11-19T15:14:39.528Z,2.53
2017-11-19T15:17:06.256Z,2.43
2017-11-19T15:19:32.906Z,2.40
2017-11-19T15:21:59.672Z,2.60
2017-11-19T15:24:26.383Z,2.20
2017-11-19T15:26:53.097Z,2.83
2017-11-19T15:29:19.782Z,2.93
2017-11-19T15:31:46.474Z,2.40
2017-11-19T15:34:13.144Z,3.07
2017-11-19T15:36:39.977Z,2.30
2017-11-19T15:39:06.661Z,3.40
2017-11-19T15:41:33.446Z,2.73
2017-11-19T15:44:00.102Z,2.70
2017-11-19T15:46:26.876Z,2.80
2017-11-19T15:48:53.587Z,2.37
2017-11-19T15:51:20.279Z,2.10
2017-11-19T15:53:46.981Z,3.23
2017-11-19T15:56:13.661Z,2.70
2017-11-19T15:58:40.351Z,2.60
2017-11-19T16:01:07.025Z,3.80
2017-11-19T16:03:33.822Z,2.53
2017-11-19T16:06:00.521Z,2.93
2017-11-19T16:08:27.194Z,2.60
2017-11-19T16:10:53.892Z,2.67
2017-11-19T16:13:20.559Z,2.20
2017-11-19T16:15:47.271Z,1.87
2017-11-19T16:18:13.990Z,2.27
2017-11-19T16:20:40.794Z,2.73
2017-11-19T16:23:07.561Z,2.77
2017-11-19T16:25:34.256Z,3.33
2017-11-19T16:28:00.952Z,2.47
2017-11-19T16:30:27.650Z,2.80
2017-11-19T16:32:54.338Z,3.40
2017-11-19T16:35:21.033Z,3.20
2017-11-19T16:37:47.698Z,3.13
2017-11-19T16:40:14.428Z,3.10
2017-11-19T16:42:41.212Z,3.47
2017-11-19T16:45:08.013Z,5.40
2017-11-19T16:47:34.704Z,3.17
2017-11-19T16:50:01.378Z,2.70
2017-11-19T16:52:28.097Z,2.90
2017-11-19T16:54:54.798Z,2.73
2017-11-19T16:57:21.571Z,3.33
2017-11-19T16:59:48.236Z,3.57
2017-11-19T17:02:14.931Z,3.10
2017-11-19T17:04:41.637Z,2.90
2017-11-19T17:07:08.331Z,3.20
2017-11-19T17:09:35.049Z,2.83
2017-11-19T17:12:01.843Z,2.73
2017-11-19T17:14:28.557Z,2.97
2017-11-19T17:16:55.261Z,3.43
2017-11-19T17:19:21.966Z,2.57
2017-11-19T17:21:48.641Z,3.20
2017-11-19T17:24:15.471Z,2.63
2017-11-19T17:26:42.144Z,3.00
2017-11-19T17:29:08.814Z,2.43
2017-11-19T17:31:35.557Z,3.90
2017-11-19T17:34:02.234Z,3.40
2017-11-19T17:36:32.468Z,3.57
2017-11-19T17:39:07.950Z,2.77
2017-11-19T17:41:34.696Z,3.17
2017-11-19T17:44:01.386Z,3.00
2017-11-19T17:46:28.376Z,3.10
2017-11-19T17:48:55.063Z,2.90
2017-11-19T17:51:21.769Z,3.77
2017-11-19T17:53:48.469Z,3.50
2017-11-19T17:56:15.318Z,4.27
2017-11-19T17:58:42.029Z,3.83
2017-11-19T18:01:08.714Z,3.83
2017-11-19T18:03:35.608Z,4.00
2017-11-19T18:06:02.338Z,3.87
2017-11-19T18:08:29.080Z,3.67
2017-11-19T18:10:55.876Z,3.90
2017-11-19T18:13:22.552Z,3.87
2017-11-19T18:15:49.294Z,3.83
2017-11-19T18:18:15.985Z,3.67
2017-11-19T18:20:42.684Z,4.80
2017-11-19T18:23:09.878Z,3.93
2017-11-19T18:25:36.571Z,3.60
2017-11-19T18:28:03.444Z,4.60
2017-11-19T18:30:30.261Z,3.87
2017-11-19T18:32:56.946Z,4.77
2017-11-19T18:35:23.621Z,5.00
2017-11-19T18:37:50.352Z,4.90
2017-11-19T18:40:17.221Z,4.63
2017-11-19T18:42:43.968Z,5.03
2017-11-19T18:45:10.635Z,4.30
2017-11-19T18:47:37.343Z,3.90
2017-11-19T18:50:04.046Z,4.13
2017-11-19T18:52:30.750Z,3.73
2017-11-19T18:54:57.514Z,4.27
2017-11-19T18:57:24.201Z,4.20
2017-11-19T18:59:50.922Z,4.30
2017-11-19T19:02:17.630Z,4.23
2017-11-19T19:07:17.566Z,4.07
2017-11-19T19:09:45.360Z,3.53
2017-11-19T19:12:12.086Z,4.23
2017-11-19T19:17:12.097Z,4.10
2017-11-19T19:19:38.812Z,4.50
2017-11-19T19:22:05.553Z,4.33
2017-11-19T19:24:32.238Z,3.70
2017-11-19T19:26:58.946Z,4.43
2017-11-19T19:29:25.643Z,3.70
2017-11-19T19:31:52.357Z,3.80
2017-11-19T19:34:19.050Z,4.70
2017-11-19T19:36:45.721Z,4.53
2017-11-19T19:39:12.447Z,4.33
2017-11-19T19:41:39.121Z,4.37
2017-11-19T19:44:05.797Z,4.00
2017-11-19T19:46:32.684Z,3.90
2017-11-19T19:48:59.523Z,4.07
2017-11-19T19:51:26.371Z,3.73
2017-11-19T19:53:53.292Z,4.03
2017-11-19T19:56:20.043Z,4.40
2017-11-19T19:58:46.755Z,3.73
2017-11-19T20:01:13.657Z,4.23
2017-11-19T20:03:40.979Z,3.70
2017-11-19T20:06:07.685Z,4.63
2017-11-19T20:08:34.394Z,3.70
2017-11-19T20:11:01.104Z,4.23
2017-11-19T20:13:28.440Z,4.70
2017-11-19T20:15:55.188Z,4.60
2017-11-19T20:18:21.904Z,4.30
2017-11-19T20:20:48.726Z,4.93
2017-11-19T20:23:15.528Z,4.23
2017-11-19T20:25:42.284Z,4.10
2017-11-19T20:28:09.192Z,4.17
2017-11-19T20:30:35.901Z,4.80
2017-11-19T20:33:02.592Z,3.90
2017-11-19T20:35:30.044Z,4.27
2017-11-19T20:37:56.725Z,4.10
2017-11-19T20:40:23.442Z,4.13
2017-11-19T20:42:51.509Z,4.07
2017-11-19T20:45:18.311Z,4.23
2017-11-19T20:47:45.024Z,4.33
2017-11-19T20:50:11.751Z,3.90
2017-11-19T20:52:38.436Z,4.27
2017-11-19T20:55:05.108Z,4.03
2017-11-19T20:57:31.819Z,4.03
2017-11-19T20:59:58.497Z,4.00
2017-11-19T21:02:25.148Z,4.67
2017-11-19T21:04:51.874Z,4.67
2017-11-19T21:07:18.550Z,4.07
2017-11-19T21:09:45.690Z,4.27
2017-11-19T21:12:12.368Z,4.40
2017-11-19T21:14:39.048Z,3.90
2017-11-19T21:17:05.745Z,3.90
2017-11-19T21:19:32.409Z,4.63
2017-11-19T21:21:59.132Z,4.10
2017-11-19T21:24:25.832Z,4.53
2017-11-19T21:26:52.507Z,5.00
2017-11-19T21:29:19.203Z,4.43
2017-11-19T21:31:45.891Z,4.23
2017-11-19T21:34:12.589Z,4.10
2017-11-19T21:36:39.265Z,4.23
2017-11-19T21:39:06.140Z,4.53
2017-11-19T21:41:32.863Z,4.53
2017-11-19T21:43:59.721Z,4.13
2017-11-19T21:46:26.423Z,4.37
2017-11-19T21:48:53.114Z,4.53
2017-11-19T21:51:19.818Z,5.30
2017-11-19T21:53:46.497Z,4.60
2017-11-19T21:56:13.167Z,4.70
2017-11-19T21:58:39.869Z,4.60
2017-11-19T22:01:06.553Z,4.53
2017-11-19T22:03:33.279Z,4.43
2017-11-19T22:05:59.949Z,4.17
2017-11-19T22:08:26.644Z,4.33
2017-11-19T22:10:53.308Z,4.33
2017-11-19T22:13:20.171Z,4.20
2017-11-19T22:15:46.862Z,4.00
2017-11-19T22:18:13.617Z,4.33
2017-11-19T22:20:40.294Z,4.30
2017-11-19T22:23:07.003Z,4.20
2017-11-19T22:25:33.717Z,3.90
2017-11-19T22:28:00.426Z,4.20
2017-11-19T22:30:27.099Z,5.40
2017-11-19T22:32:53.781Z,4.23
2017-11-19T22:35:20.467Z,4.90
2017-11-19T22:37:47.977Z,4.57
2017-11-19T22:40:14.742Z,4.27
2017-11-19T22:42:41.475Z,5.17
2017-11-19T22:45:08.214Z,4.80
2017-11-19T22:47:34.888Z,4.80
2017-11-19T22:50:01.584Z,5.10
2017-11-19T22:52:28.271Z,5.47
2017-11-19T22:54:54.982Z,4.77
2017-11-19T22:57:21.782Z,4.90
2017-11-19T22:59:48.489Z,5.10
2017-11-19T23:02:15.184Z,5.40
2017-11-19T23:04:41.851Z,4.70
2017-11-19T23:07:08.527Z,5.20
2017-11-19T23:09:35.187Z,5.00
2017-11-19T23:12:01.978Z,4.57
2017-11-19T23:14:28.645Z,4.50
2017-11-19T23:16:55.333Z,4.73
2017-11-19T23:19:22.034Z,5.00
2017-11-19T23:21:48.709Z,4.90
2017-11-19T23:24:15.401Z,4.83
2017-11-19T23:26:42.079Z,5.20
2017-11-19T23:29:08.781Z,5.03
2017-11-19T23:31:35.453Z,4.53
2017-11-19T23:34:02.152Z,4.40
2017-11-19T23:36:28.822Z,4.60
2017-11-19T23:38:55.616Z,4.43
2017-11-19T23:41:22.476Z,4.70
2017-11-19T23:43:49.136Z,4.60
2017-11-19T23:46:15.879Z,4.90
2017-11-19T23:48:42.539Z,5.07
2017-11-19T23:51:09.225Z,5.17
2017-11-19T23:53:35.912Z,5.13
2017-11-19T23:56:02.570Z,4.70
2017-11-19T23:58:29.281Z,4.70
